Time;durP1;ratioP1;P1;durP2;ratioP2;P2;SDS_P1;SDS_P2;PMS_P1;PMS_P2;Temp;Humidity;BMP_temperature;BMP_pressure;BME280_temperature;BME280_humidity;BME280_pressure;Samples;Min_cycle;Max_cycle;Signal;HPM_P1;HPM_P2
2021/01/30 00:02:11;;;;;;;;;;;;;;;8.34;100.00;99194.03;5057841;28;19916;-74
2021/01/30 00:04:40;;;;;;;;;;;;;;;8.33;100.00;99184.13;5078525;28;19948;-74
2021/01/30 00:07:05;;;;;;;;;;;;;;;8.34;100.00;99176.63;5087108;28;19923;-74
2021/01/30 00:09:31;;;;;;;;;;;;;;;8.33;100.00;99166.69;5072716;28;19916;-74
2021/01/30 00:11:57;;;;;;;;;;;;;;;8.32;100.00;99152.03;5057027;28;19916;-74
2021/01/30 00:14:26;;;;;;;;;;;;;;;8.33;100.00;99150.09;5055800;28;19912;-74
2021/01/30 00:16:57;;;;;;;;;;;;;;;8.31;100.00;99133.00;5074121;28;19916;-74
2021/01/30 00:19:25;;;;;;;;;;;;;;;8.32;100.00;99121.59;5070207;28;20417;-74
2021/01/30 00:21:57;;;;;;;;;;;;;;;8.32;100.00;99120.78;5058078;28;19927;-74
2021/01/30 00:24:28;;;;;;;;;;;;;;;8.29;100.00;99123.06;5089646;28;19924;-74
2021/01/30 00:26:58;;;;;;;;;;;;;;;8.31;100.00;99105.34;5053735;28;20014;-74
2021/01/30 00:29:25;;;;;;;;;;;;;;;8.29;100.00;99095.38;5074105;28;20409;-74
2021/01/30 00:31:53;;;;;;;;;;;;;;;8.32;100.00;99082.06;5040327;28;20276;-74
2021/01/30 00:34:22;;;;;;;;;;;;;;;8.31;100.00;99078.50;5074382;28;20011;-74
2021/01/30 00:36:51;;;;;;;;;;;;;;;8.32;100.00;99076.53;5074628;28;19928;-74
2021/01/30 00:39:19;;;;;;;;;;;;;;;8.32;100.00;99071.00;5053582;28;19923;-74
2021/01/30 00:41:45;;;;;;;;;;;;;;;8.30;100.00;99057.47;5056130;28;20007;-75
2021/01/30 00:44:14;;;;;;;;;;;;;;;8.30;100.00;99049.19;5067695;28;20006;-74
2021/01/30 00:46:42;;;;;;;;;;;;;;;8.29;100.00;99042.84;5069180;28;19917;-74
2021/01/30 00:49:07;;;;;;;;;;;;;;;8.31;100.00;99036.19;5078793;28;19924;-74
2021/01/30 00:51:33;;;;;;;;;;;;;;;8.32;100.00;99018.44;5077278;28;19961;-74
2021/01/30 00:53:58;;;;;;;;;;;;;;;8.32;100.00;99023.97;5072382;28;19970;-74
2021/01/30 00:56:23;;;;;;;;;;;;;;;8.32;100.00;99016.50;5075381;28;20258;-74
2021/01/30 00:58:51;;;;;;;;;;;;;;;8.31;100.00;99012.09;5075177;28;20250;-74
2021/01/30 01:01:17;;;;;;;;;;;;;;;8.33;100.00;99001.56;5059578;28;19946;-74
2021/01/30 01:03:42;;;;;;;;;;;;;;;8.32;100.00;98988.84;5091446;28;20725;-74
2021/01/30 01:06:08;;;;;;;;;;;;;;;8.33;100.00;98990.50;5059904;28;20411;-74
2021/01/30 01:08:33;;;;;;;;;;;;;;;8.34;100.00;98988.53;5061070;28;19947;-74
2021/01/30 01:10:58;;;;;;;;;;;;;;;8.34;100.00;98966.41;5074653;28;19931;-74
2021/01/30 01:13:26;;;;;;;;;;;;;;;8.34;100.00;98961.69;5043915;28;19919;-74
2021/01/30 01:15:52;;;;;;;;;;;;;;;8.34;100.00;98947.84;5074545;28;19920;-74
2021/01/30 01:18:19;;;;;;;;;;;;;;;8.37;100.00;98940.88;5060855;28;19968;-74
2021/01/30 01:20:45;;;;;;;;;;;;;;;8.38;100.00;98946.06;5049444;28;19917;-74
2021/01/30 01:23:10;;;;;;;;;;;;;;;8.39;100.00;98935.88;5057366;28;19924;-74
2021/01/30 01:25:35;;;;;;;;;;;;;;;8.39;100.00;98927.56;5109836;28;20310;-74
2021/01/30 01:28:03;;;;;;;;;;;;;;;8.38;100.00;98917.59;5044665;28;19966;-75
2021/01/30 01:30:31;;;;;;;;;;;;;;;8.41;100.00;98919.75;5060936;28;19984;-74
2021/01/30 01:32:57;;;;;;;;;;;;;;;8.41;100.00;98908.69;5092338;28;20431;-74
2021/01/30 01:35:25;;;;;;;;;;;;;;;8.43;100.00;98895.34;5060684;28;19918;-74
2021/01/30 01:37:52;;;;;;;;;;;;;;;8.43;100.00;98895.34;5061634;28;20432;-74
2021/01/30 01:40:19;;;;;;;;;;;;;;;8.42;100.00;98894.56;5075230;28;20331;-75
2021/01/30 01:42:47;;;;;;;;;;;;;;;8.44;100.00;98891.44;5044848;28;19999;-75
2021/01/30 01:45:34;;;;;;;;;;;;;;;8.44;100.00;98892.28;5059942;28;20612;-75
2021/01/30 01:48:11;;;;;;;;;;;;;;;8.45;100.00;98882.03;5066137;28;20011;-75
2021/01/30 01:50:43;;;;;;;;;;;;;;;8.47;100.00;98882.53;5093162;28;19942;-74
2021/01/30 01:53:18;;;;;;;;;;;;;;;8.49;100.00;98877.47;5077700;28;20008;-74
2021/01/30 01:55:47;;;;;;;;;;;;;;;8.50;100.00;98868.88;5072136;28;19984;-74
2021/01/30 01:58:15;;;;;;;;;;;;;;;8.50;100.00;98873.59;5069795;28;19917;-74
2021/01/30 02:00:43;;;;;;;;;;;;;;;8.51;100.00;98858.59;5076553;28;20277;-74
2021/01/30 02:03:13;;;;;;;;;;;;;;;8.55;100.00;98862.34;5077141;28;19920;-75
2021/01/30 02:05:41;;;;;;;;;;;;;;;8.54;100.00;98854.38;5043339;28;20053;-74
2021/01/30 02:08:10;;;;;;;;;;;;;;;8.55;100.00;98848.53;5057506;28;19927;-74
2021/01/30 02:10:43;;;;;;;;;;;;;;;8.57;100.00;98845.44;5040079;28;20051;-74
2021/01/30 02:13:34;;;;;;;;;;;;;;;8.57;100.00;98837.13;5065678;28;19917;-74
2021/01/30 02:16:02;;;;;;;;;;;;;;;8.58;100.00;98831.31;5046111;28;19952;-74
2021/01/30 02:18:37;;;;;;;;;;;;;;;8.58;100.00;98825.78;5059938;28;19931;-74
2021/01/30 02:21:24;;;;;;;;;;;;;;;8.59;100.00;98821.03;5074310;28;19948;-74
2021/01/30 02:24:08;;;;;;;;;;;;;;;8.58;100.00;98814.69;5073553;28;19924;-74
2021/01/30 02:26:33;;;;;;;;;;;;;;;8.59;100.00;98813.53;5087606;28;19923;-74
2021/01/30 02:29:20;;;;;;;;;;;;;;;8.60;100.00;98806.88;5061825;28;19921;-75
2021/01/30 02:32:04;;;;;;;;;;;;;;;8.61;100.00;98797.44;5060852;28;20003;-74
2021/01/30 02:34:43;;;;;;;;;;;;;;;8.63;100.00;98797.91;5090467;28;20361;-74
2021/01/30 02:37:19;;;;;;;;;;;;;;;8.65;100.00;98787.34;5107380;28;20447;-74
2021/01/30 02:39:57;;;;;;;;;;;;;;;8.64;100.00;98785.72;5070209;28;19977;-74
2021/01/30 02:42:23;;;;;;;;;;;;;;;8.65;100.00;98792.88;5053878;28;19966;-75
2021/01/30 02:45:12;;;;;;;;;;;;;;;8.67;100.00;98779.53;5081594;28;19923;-74
2021/01/30 02:47:42;;;;;;;;;;;;;;;8.69;100.00;98771.75;5060138;28;20019;-74
2021/01/30 02:50:12;;;;;;;;;;;;;;;8.70;100.00;98775.31;5060400;28;19972;-75
2021/01/30 02:52:37;;;;;;;;;;;;;;;8.69;100.00;98771.75;5059049;28;19917;-74
2021/01/30 02:55:06;;;;;;;;;;;;;;;8.73;100.00;98766.38;5070263;28;19916;-74
2021/01/30 02:57:31;;;;;;;;;;;;;;;8.72;100.00;98761.97;5053199;28;19924;-74
2021/01/30 02:59:58;;;;;;;;;;;;;;;8.75;100.00;98764.09;5079518;28;20381;-75
2021/01/30 03:02:26;;;;;;;;;;;;;;;8.77;100.00;98752.69;5070282;28;20511;-74
2021/01/30 03:04:54;;;;;;;;;;;;;;;8.78;100.00;98751.56;5074705;28;19920;-74
2021/01/30 03:07:28;;;;;;;;;;;;;;;8.82;100.00;98749.75;5041618;28;19917;-74
2021/01/30 03:10:00;;;;;;;;;;;;;;;8.86;100.00;98747.94;5062522;28;20070;-74
2021/01/30 03:12:25;;;;;;;;;;;;;;;8.85;100.00;98743.56;5053350;28;19917;-74
2021/01/30 03:14:54;;;;;;;;;;;;;;;8.87;100.00;98742.09;5091810;28;20383;-75
2021/01/30 03:17:22;;;;;;;;;;;;;;;8.88;100.00;98729.88;5060614;28;19920;-74
2021/01/30 03:19:47;;;;;;;;;;;;;;;8.89;100.00;98730.72;5074461;28;19970;-74
2021/01/30 03:22:16;;;;;;;;;;;;;;;8.90;100.00;98733.13;5041887;28;19916;-74
2021/01/30 03:24:50;;;;;;;;;;;;;;;8.92;100.00;98732.84;5060925;28;20004;-74
2021/01/30 03:27:42;;;;;;;;;;;;;;;8.94;100.00;98727.75;5069543;28;19916;-74
2021/01/30 03:30:08;;;;;;;;;;;;;;;8.95;100.00;98734.94;5077723;28;19959;-74
2021/01/30 03:32:34;;;;;;;;;;;;;;;8.94;100.00;98714.75;5057199;28;19923;-74
2021/01/30 03:35:01;;;;;;;;;;;;;;;8.95;100.00;98707.25;5042414;28;20003;-74
2021/01/30 03:37:26;;;;;;;;;;;;;;;8.96;100.00;98703.34;5069912;28;19923;-74
2021/01/30 03:39:54;;;;;;;;;;;;;;;8.97;100.00;98704.97;5087376;28;19916;-74
2021/01/30 03:42:21;;;;;;;;;;;;;;;8.99;100.00;98701.88;5058559;28;20384;-74
2021/01/30 03:44:47;;;;;;;;;;;;;;;8.99;100.00;98699.91;5074845;28;19923;-75
2021/01/30 03:47:12;;;;;;;;;;;;;;;9.01;100.00;98708.72;5073882;28;20373;-74
2021/01/30 03:49:38;;;;;;;;;;;;;;;9.01;100.00;98707.91;5076552;28;19943;-75
2021/01/30 03:52:06;;;;;;;;;;;;;;;9.02;100.00;98707.56;5057130;28;20005;-74
2021/01/30 03:54:34;;;;;;;;;;;;;;;9.03;100.00;98714.75;5039033;28;19921;-74
2021/01/30 03:56:59;;;;;;;;;;;;;;;9.04;100.00;98710.00;5074695;28;20011;-74
2021/01/30 03:59:24;;;;;;;;;;;;;;;9.03;100.00;98700.91;5058876;28;19947;-74
2021/01/30 04:01:50;;;;;;;;;;;;;;;9.04;100.00;98702.50;5071766;28;19921;-74
2021/01/30 04:04:15;;;;;;;;;;;;;;;9.03;100.00;98681.50;5071597;28;19923;-74
2021/01/30 04:06:45;;;;;;;;;;;;;;;9.04;100.00;98696.97;5071190;28;19923;-74
2021/01/30 04:09:11;;;;;;;;;;;;;;;9.04;100.00;98694.22;5063679;28;19920;-74
2021/01/30 04:11:42;;;;;;;;;;;;;;;9.04;100.00;98688.66;5043042;28;20408;-75
2021/01/30 04:14:08;;;;;;;;;;;;;;;9.04;100.00;98685.91;5053094;28;19992;-74
2021/01/30 04:16:56;;;;;;;;;;;;;;;9.04;100.00;98677.59;5082976;28;19948;-75
2021/01/30 04:19:37;;;;;;;;;;;;;;;9.04;100.00;98674.81;5069021;28;20411;-74
2021/01/30 04:22:06;;;;;;;;;;;;;;;9.04;100.00;98674.81;5060843;28;19916;-75
2021/01/30 04:24:36;;;;;;;;;;;;;;;9.04;100.00;98677.59;5047619;28;20280;-75
2021/01/30 04:27:10;;;;;;;;;;;;;;;9.05;100.00;98679.22;5071552;28;20304;-75
2021/01/30 04:29:42;;;;;;;;;;;;;;;9.04;100.00;98666.50;5075000;28;19920;-75
2021/01/30 04:32:11;;;;;;;;;;;;;;;9.04;100.00;98665.72;5061271;28;19974;-74
2021/01/30 04:34:47;;;;;;;;;;;;;;;9.03;100.00;98669.63;5080036;28;19951;-75
2021/01/30 04:37:16;;;;;;;;;;;;;;;9.04;100.00;98660.16;5065114;28;20331;-74
2021/01/30 04:39:47;;;;;;;;;;;;;;;9.04;100.00;98657.41;5063066;28;19966;-74
2021/01/30 04:42:20;;;;;;;;;;;;;;;9.03;100.00;98662.13;5075748;28;19967;-74
2021/01/30 04:45:11;;;;;;;;;;;;;;;9.05;100.00;98662.59;5078619;28;19952;-74
2021/01/30 04:47:45;;;;;;;;;;;;;;;9.05;100.00;98657.06;5060209;28;19920;-74
2021/01/30 04:50:33;;;;;;;;;;;;;;;9.05;100.00;98647.94;5065429;28;19920;-74
2021/01/30 04:53:04;;;;;;;;;;;;;;;9.07;100.00;98651.19;5072988;28;19924;-75
2021/01/30 04:55:48;;;;;;;;;;;;;;;9.06;100.00;98650.41;5097794;28;20002;-75
2021/01/30 04:58:15;;;;;;;;;;;;;;;9.07;100.00;98646.47;5093163;28;19948;-75
2021/01/30 05:01:06;;;;;;;;;;;;;;;9.06;100.00;98642.09;5066199;28;20391;-75
2021/01/30 05:03:41;;;;;;;;;;;;;;;9.07;100.00;98638.16;5076401;28;19935;-75
2021/01/30 05:06:10;;;;;;;;;;;;;;;9.08;100.00;98633.44;5079487;28;20334;-75
2021/01/30 05:08:43;;;;;;;;;;;;;;;9.07;100.00;98626.28;5058682;28;19920;-75
2021/01/30 05:11:12;;;;;;;;;;;;;;;9.07;100.00;98616.00;5071519;28;19974;-75
2021/01/30 05:13:38;;;;;;;;;;;;;;;9.06;100.00;98617.16;5072169;28;19943;-75
2021/01/30 05:16:10;;;;;;;;;;;;;;;9.05;100.00;98604.44;5058326;28;19927;-75
2021/01/30 05:18:41;;;;;;;;;;;;;;;9.07;100.00;98598.59;5048609;28;20018;-75
2021/01/30 05:21:13;;;;;;;;;;;;;;;9.07;100.00;98593.06;5070921;28;19927;-74
2021/01/30 05:23:42;;;;;;;;;;;;;;;9.08;100.00;98575.28;5048688;28;19920;-74
2021/01/30 05:26:23;;;;;;;;;;;;;;;9.06;100.00;98586.72;5082059;28;19913;-75
2021/01/30 05:29:07;;;;;;;;;;;;;;;9.05;100.00;98582.28;5108230;28;19928;-75
2021/01/30 05:31:48;;;;;;;;;;;;;;;9.07;100.00;98566.16;5073861;28;20315;-75
2021/01/30 05:34:29;;;;;;;;;;;;;;;9.09;100.00;98574.16;5072803;28;20002;-75
2021/01/30 05:37:09;;;;;;;;;;;;;;;9.09;100.00;98568.63;5052678;28;19931;-74
2021/01/30 05:39:43;;;;;;;;;;;;;;;9.09;100.00;98563.88;5063634;28;20552;-75
2021/01/30 05:42:27;;;;;;;;;;;;;;;9.09;100.00;98563.09;5102807;27;19920;-75
2021/01/30 05:44:55;;;;;;;;;;;;;;;9.07;100.00;98560.63;5085241;28;19916;-74
2021/01/30 05:47:22;;;;;;;;;;;;;;;9.06;100.00;98561.78;5072709;28;19939;-74
2021/01/30 05:49:49;;;;;;;;;;;;;;;9.06;100.00;98566.50;5046750;28;20003;-74
2021/01/30 05:52:19;;;;;;;;;;;;;;;9.06;100.00;98561.78;5071720;28;19919;-75
2021/01/30 05:54:47;;;;;;;;;;;;;;;9.05;100.00;98557.38;5053680;28;20280;-75
2021/01/30 05:57:19;;;;;;;;;;;;;;;9.04;100.00;98555.75;5059042;28;19916;-74
2021/01/30 06:00:01;;;;;;;;;;;;;;;9.04;100.00;98566.84;5059526;28;19913;-75
2021/01/30 06:02:30;;;;;;;;;;;;;;;9.03;100.00;98565.22;5066964;28;20310;-74
2021/01/30 06:04:58;;;;;;;;;;;;;;;9.01;100.00;98561.97;5046703;28;19923;-75
2021/01/30 06:07:23;;;;;;;;;;;;;;;9.00;100.00;98560.34;5074922;28;19916;-74
2021/01/30 06:09:54;;;;;;;;;;;;;;;8.98;100.00;98559.84;5064116;28;19979;-75
2021/01/30 06:12:41;;;;;;;;;;;;;;;8.97;100.00;98560.19;5074079;28;20411;-74
2021/01/30 06:15:16;;;;;;;;;;;;;;;8.94;100.00;98550.56;5077420;28;19920;-74
2021/01/30 06:17:44;;;;;;;;;;;;;;;8.90;100.00;98533.81;5082484;28;19995;-74
2021/01/30 06:20:16;;;;;;;;;;;;;;;8.91;100.00;98535.47;5078977;28;19940;-74
2021/01/30 06:22:41;;;;;;;;;;;;;;;8.89;100.00;98548.00;5080105;28;19916;-74
2021/01/30 06:25:22;;;;;;;;;;;;;;;8.86;100.00;98548.63;5059806;28;19916;-74
2021/01/30 06:27:47;;;;;;;;;;;;;;;8.85;100.00;98541.50;5080922;28;19920;-74
2021/01/30 06:30:17;;;;;;;;;;;;;;;8.81;100.00;98540.53;5064580;28;20007;-74
2021/01/30 06:32:45;;;;;;;;;;;;;;;8.79;100.00;98531.75;5056108;28;19923;-74
2021/01/30 06:35:19;;;;;;;;;;;;;;;8.76;100.00;98537.94;5064643;28;19931;-74
2021/01/30 06:37:55;;;;;;;;;;;;;;;8.70;100.00;98546.41;5095422;28;19918;-75
2021/01/30 06:40:27;;;;;;;;;;;;;;;8.67;100.00;98544.31;5076588;28;20030;-75
2021/01/30 06:43:04;;;;;;;;;;;;;;;8.62;100.00;98541.72;5072351;28;19916;-74
2021/01/30 06:45:36;;;;;;;;;;;;;;;8.57;100.00;98541.88;5055694;28;19915;-74
2021/01/30 06:48:27;;;;;;;;;;;;;;;8.53;100.00;98551.19;5054028;28;20364;-74
2021/01/30 06:50:59;;;;;;;;;;;;;;;8.47;100.00;98542.25;5084010;28;19942;-75
2021/01/30 06:53:31;;;;;;;;;;;;;;;8.41;100.00;98549.06;5065334;28;19922;-74
2021/01/30 06:56:23;;;;;;;;;;;;;;;8.38;100.00;98539.44;5086389;28;19981;-75
2021/01/30 06:58:51;;;;;;;;;;;;;;;8.29;100.00;98531.16;5061764;28;19990;-74
2021/01/30 07:01:23;;;;;;;;;;;;;;;8.27;100.00;98527.94;5063093;28;19916;-74
2021/01/30 07:04:02;;;;;;;;;;;;;;;8.23;100.00;98526.94;5059834;28;19935;-75
2021/01/30 07:06:31;;;;;;;;;;;;;;;8.18;100.00;98523.53;5110888;28;19916;-74
2021/01/30 07:09:08;;;;;;;;;;;;;;;8.15;100.00;98518.66;5095977;28;19930;-74
2021/01/30 07:11:33;;;;;;;;;;;;;;;8.10;100.00;98525.16;5058662;28;19916;-74
2021/01/30 07:14:11;;;;;;;;;;;;;;;8.06;100.00;98526.97;5063094;28;20369;-75
2021/01/30 07:16:55;;;;;;;;;;;;;;;8.01;100.00;98527.13;5088358;28;20010;-74
2021/01/30 07:19:24;;;;;;;;;;;;;;;7.98;100.00;98522.25;5065501;28;19979;-74
2021/01/30 07:21:50;;;;;;;;;;;;;;;7.94;100.00;98519.31;5083750;28;19917;-74
2021/01/30 07:24:19;;;;;;;;;;;;;;;7.92;100.00;98518.03;5066804;28;19912;-74
2021/01/30 07:26:46;;;;;;;;;;;;;;;7.87;100.00;98515.41;5062004;28;20007;-74
2021/01/30 07:29:30;;;;;;;;;;;;;;;7.86;100.00;98511.03;5079022;28;20289;-74
2021/01/30 07:32:08;;;;;;;;;;;;;;;7.81;100.00;98499.00;5078338;28;19916;-74
2021/01/30 07:34:35;;;;;;;;;;;;;;;7.78;100.00;98498.81;5083385;28;19916;-74
2021/01/30 07:37:11;;;;;;;;;;;;;;;7.71;100.00;98499.28;5045267;28;19952;-74
2021/01/30 07:39:44;;;;;;;;;;;;;;;7.69;100.00;98501.59;5077178;28;19995;-74
2021/01/30 07:42:09;;;;;;;;;;;;;;;7.62;100.00;98515.06;5092862;28;19994;-74
2021/01/30 07:44:48;;;;;;;;;;;;;;;7.59;100.00;98512.94;5062148;28;20392;-74
2021/01/30 07:47:20;;;;;;;;;;;;;;;7.58;100.00;98525.16;5047207;28;20383;-74
2021/01/30 07:49:46;;;;;;;;;;;;;;;7.56;100.00;98519.94;5065717;28;19923;-74
2021/01/30 07:52:23;;;;;;;;;;;;;;;7.50;100.00;98509.38;5045788;28;19924;-74
2021/01/30 07:54:49;;;;;;;;;;;;;;;7.46;100.00;98508.38;5103691;28;19920;-74
2021/01/30 07:57:38;;;;;;;;;;;;;;;7.44;100.00;98502.34;5062273;28;20277;-75
2021/01/30 08:00:03;;;;;;;;;;;;;;;7.41;100.00;98497.47;5092925;28;19916;-75
2021/01/30 08:02:52;;;;;;;;;;;;;;;7.43;100.00;98495.22;5097391;28;19924;-75
2021/01/30 08:05:27;;;;;;;;;;;;;;;7.39;100.00;98484.81;5058825;28;20464;-74
2021/01/30 08:08:24;;;;;;;;;;;;;;;7.41;100.00;98495.53;5067967;28;20376;-74
2021/01/30 08:11:08;;;;;;;;;;;;;;;7.41;100.00;98484.50;5032294;28;20056;-74
2021/01/30 08:13:39;;;;;;;;;;;;;;;7.39;100.00;98473.75;5073361;28;20330;-74
2021/01/30 08:16:05;;;;;;;;;;;;;;;7.42;100.00;98468.75;5060927;28;19923;-75
2021/01/30 08:19:24;;;;;;;;;;;;;;;;;;;;;
2021/01/30 08:22:09;;;;;;;;;;;;;;;7.39;100.00;98439.81;5075800;28;19916;-75
2021/01/30 08:24:44;;;;;;;;;;;;;;;7.41;100.00;98431.19;5072593;28;19939;-74
2021/01/30 08:27:19;;;;;;;;;;;;;;;7.42;100.00;98430.06;5093329;28;19983;-74
2021/01/30 08:29:45;;;;;;;;;;;;;;;7.43;100.00;98431.69;5105900;28;19967;-74
2021/01/30 08:32:29;;;;;;;;;;;;;;;7.43;100.00;98437.22;5047359;28;19920;-74
2021/01/30 08:35:18;;;;;;;;;;;;;;;7.45;100.00;98435.75;5067590;28;19923;-74
2021/01/30 08:37:48;;;;;;;;;;;;;;;7.47;100.00;98427.97;5071877;28;19912;-74
2021/01/30 08:40:16;;;;;;;;;;;;;;;7.51;100.00;98428.13;5061687;28;20380;-74
2021/01/30 08:42:52;;;;;;;;;;;;;;;7.54;100.00;98433.81;5046137;28;19938;-74
2021/01/30 08:45:20;;;;;;;;;;;;;;;7.59;100.00;98419.03;5100631;28;19971;-74
2021/01/30 08:47:54;;;;;;;;;;;;;;;7.64;100.00;98421.63;5073754;28;20011;-74
2021/01/30 08:50:26;;;;;;;;;;;;;;;7.73;100.00;98421.63;5064466;28;19920;-75
2021/01/30 08:53:13;;;;;;;;;;;;;;;7.79;100.00;98410.06;5090129;28;19915;-74
2021/01/30 08:55:44;;;;;;;;;;;;;;;7.87;100.00;98397.38;5046900;28;19924;-74
2021/01/30 08:58:36;;;;;;;;;;;;;;;7.98;100.00;98400.63;5072978;28;19939;-74
2021/01/30 09:01:09;;;;;;;;;;;;;;;8.06;100.00;98400.59;5067744;28;19920;-75
2021/01/30 09:03:37;;;;;;;;;;;;;;;8.15;100.00;98394.22;5071298;28;19999;-75
2021/01/30 09:06:03;;;;;;;;;;;;;;;8.24;100.00;98400.53;5079938;28;19952;-74
2021/01/30 09:08:41;;;;;;;;;;;;;;;8.32;100.00;98398.91;5081044;28;19920;-74
2021/01/30 09:11:23;;;;;;;;;;;;;;;8.41;100.00;98395.00;5042187;28;19916;-74
2021/01/30 09:14:16;;;;;;;;;;;;;;;8.50;100.00;98389.44;5072798;28;19924;-74
2021/01/30 09:17:03;;;;;;;;;;;;;;;8.60;100.00;98396.53;5078209;28;19912;-74
2021/01/30 09:19:35;;;;;;;;;;;;;;;8.68;100.00;98387.38;5061174;28;19923;-75
2021/01/30 09:22:12;;;;;;;;;;;;;;;8.72;100.00;98378.09;5080934;28;19985;-74
2021/01/30 09:24:38;;;;;;;;;;;;;;;8.79;100.00;98377.56;5076424;28;19939;-74
2021/01/30 09:27:11;;;;;;;;;;;;;;;8.86;100.00;98375.09;5085006;28;19912;-76
2021/01/30 09:29:38;;;;;;;;;;;;;;;8.92;100.00;98381.25;5081373;28;20396;-80
2021/01/30 09:32:03;;;;;;;;;;;;;;;8.97;100.00;98375.50;5085838;28;19916;-79
2021/01/30 09:34:30;;;;;;;;;;;;;;;9.02;100.00;98367.00;5108244;28;19922;-79
2021/01/30 09:36:56;;;;;;;;;;;;;;;9.08;100.00;98364.84;5085288;28;19927;-80
2021/01/30 09:39:23;;;;;;;;;;;;;;;9.12;100.00;98358.28;5076910;28;20319;-78
2021/01/30 09:41:48;;;;;;;;;;;;;;;9.15;100.00;98345.75;5081594;28;19941;-80
2021/01/30 09:44:21;;;;;;;;;;;;;;;9.20;100.00;98358.59;5111058;28;20327;-82
2021/01/30 09:46:49;;;;;;;;;;;;;;;9.25;100.00;98347.28;5086085;28;19912;-79
2021/01/30 09:49:18;;;;;;;;;;;;;;;9.29;100.00;98345.47;5078347;28;19928;-78
2021/01/30 09:51:44;;;;;;;;;;;;;;;9.34;100.00;98336.97;5077426;28;19916;-78
2021/01/30 09:54:12;;;;;;;;;;;;;;;9.36;100.00;98340.19;5083244;28;19924;-79
2021/01/30 09:56:37;;;;;;;;;;;;;;;9.42;100.00;98338.00;5047886;28;19916;-83
2021/01/30 09:59:03;;;;;;;;;;;;;;;9.44;100.00;98339.28;5073642;28;19922;-78
2021/01/30 10:01:28;;;;;;;;;;;;;;;9.46;100.00;98331.47;5113547;27;20354;-81
2021/01/30 10:03:53;;;;;;;;;;;;;;;9.46;100.00;98339.78;5099458;28;19979;-78
2021/01/30 10:06:25;;;;;;;;;;;;;;;9.51;100.00;98331.25;5080182;28;19912;-80
2021/01/30 10:08:50;;;;;;;;;;;;;;;9.55;100.00;98315.56;5093020;28;19969;-81
2021/01/30 10:11:17;;;;;;;;;;;;;;;9.57;100.00;98327.13;5078166;28;19916;-81
2021/01/30 10:13:46;;;;;;;;;;;;;;;9.62;100.00;98324.13;5112266;28;19920;-78
2021/01/30 10:16:46;;;;;;;;;;;;;;;9.68;100.00;98316.41;5087212;28;19939;-75
2021/01/30 10:19:54;;;;;;;;;;;;;;;9.70;100.00;98319.66;5061117;28;19920;-75
2021/01/30 10:22:54;;;;;;;;;;;;;;;9.74;100.00;98322.56;5097362;28;19962;-75
2021/01/30 10:25:54;;;;;;;;;;;;;;;9.76;100.00;98315.53;5090766;28;19916;-75
2021/01/30 10:28:52;;;;;;;;;;;;;;;9.80;100.00;98304.56;5064462;28;19920;-75
2021/01/30 10:31:25;;;;;;;;;;;;;;;9.83;100.00;98320.50;5099140;28;19912;-74
2021/01/30 10:34:02;;;;;;;;;;;;;;;9.84;100.00;98305.50;5041826;28;20003;-75
2021/01/30 10:36:28;;;;;;;;;;;;;;;9.86;100.00;98317.03;5071973;28;20407;-73
2021/01/30 10:38:53;;;;;;;;;;;;;;;9.86;100.00;98314.25;5105287;28;20012;-73
2021/01/30 10:41:19;;;;;;;;;;;;;;;9.87;100.00;98310.34;5068406;28;19970;-73
2021/01/30 10:43:45;;;;;;;;;;;;;;;9.84;100.00;98309.09;5088495;28;19923;-73
2021/01/30 10:46:15;;;;;;;;;;;;;;;9.85;100.00;98307.13;5079757;28;20365;-73
2021/01/30 10:48:41;;;;;;;;;;;;;;;9.84;100.00;98306.31;5073516;28;20352;-73
2021/01/30 10:51:07;;;;;;;;;;;;;;;9.83;100.00;98285.28;5079870;28;19919;-73
2021/01/30 10:53:40;;;;;;;;;;;;;;;9.84;100.00;98284.13;5075998;28;19923;-73
2021/01/30 10:56:20;;;;;;;;;;;;;;;9.84;100.00;98277.78;5073291;28;19916;-73
2021/01/30 10:58:46;;;;;;;;;;;;;;;9.83;100.00;98278.91;5096292;28;20011;-73
2021/01/30 11:01:18;;;;;;;;;;;;;;;9.84;100.00;98277.78;5078869;28;19955;-75
2021/01/30 11:03:51;;;;;;;;;;;;;;;9.84;100.00;98269.47;5095482;28;19923;-74
2021/01/30 11:06:20;;;;;;;;;;;;;;;9.83;100.00;98271.44;5083468;28;19979;-75
2021/01/30 11:08:48;;;;;;;;;;;;;;;9.82;100.00;98269.00;5072621;28;20054;-74
2021/01/30 11:11:21;;;;;;;;;;;;;;;9.81;100.00;98267.38;5075149;28;19916;-75
2021/01/30 11:13:47;;;;;;;;;;;;;;;9.80;100.00;98257.44;5048844;28;19920;-75
2021/01/30 11:16:16;;;;;;;;;;;;;;;9.79;100.00;98259.41;5062247;28;20052;-75
2021/01/30 11:18:47;;;;;;;;;;;;;;;9.77;100.00;98256.16;5067565;28;19990;-74
2021/01/30 11:21:12;;;;;;;;;;;;;;;9.78;100.00;98251.44;5060255;28;19966;-74
2021/01/30 11:23:41;;;;;;;;;;;;;;;9.77;100.00;98249.81;5078014;28;19916;-78
2021/01/30 11:26:11;;;;;;;;;;;;;;;9.76;100.00;98242.66;5090791;28;19920;-74
2021/01/30 11:28:36;;;;;;;;;;;;;;;9.77;100.00;98247.03;5101011;27;19920;-74
2021/01/30 11:31:02;;;;;;;;;;;;;;;9.78;100.00;98237.59;5094089;28;19923;-74
2021/01/30 11:33:27;;;;;;;;;;;;;;;9.79;100.00;98242.75;5091600;28;19923;-73
2021/01/30 11:35:53;;;;;;;;;;;;;;;9.82;100.00;98241.28;5098447;28;20365;-74
2021/01/30 11:38:20;;;;;;;;;;;;;;;9.79;100.00;98230.88;5077198;28;19920;-73
2021/01/30 11:40:46;;;;;;;;;;;;;;;9.82;100.00;98230.19;5094605;28;19912;-74
2021/01/30 11:43:11;;;;;;;;;;;;;;;9.83;100.00;98223.47;5092678;28;19970;-74
2021/01/30 11:45:37;;;;;;;;;;;;;;;9.83;100.00;98221.53;5061799;28;19938;-74
2021/01/30 11:48:02;;;;;;;;;;;;;;;9.85;100.00;98218.41;5115152;27;20284;-74
2021/01/30 11:50:27;;;;;;;;;;;;;;;9.87;100.00;98216.09;5098004;28;19970;-74
2021/01/30 11:52:53;;;;;;;;;;;;;;;9.90;100.00;98212.63;5094917;28;19916;-73
2021/01/30 11:55:18;;;;;;;;;;;;;;;9.92;100.00;98215.88;5079489;28;19938;-74
2021/01/30 11:57:44;;;;;;;;;;;;;;;9.92;100.00;98207.56;5075401;28;19931;-74
2021/01/30 12:00:09;;;;;;;;;;;;;;;9.95;100.00;98206.88;5092444;28;19912;-74
2021/01/30 12:02:36;;;;;;;;;;;;;;;9.98;100.00;98195.09;5092091;28;20010;-71
2021/01/30 12:05:02;;;;;;;;;;;;;;;9.99;100.00;98195.88;5091019;28;20360;-74
2021/01/30 12:07:27;;;;;;;;;;;;;;;10.03;100.00;98185.72;5045094;28;19966;-73
2021/01/30 12:09:53;;;;;;;;;;;;;;;10.05;100.00;98183.41;5058217;28;19916;-74
2021/01/30 12:12:18;;;;;;;;;;;;;;;10.07;100.00;98181.09;5079829;28;20423;-74
2021/01/30 12:14:44;;;;;;;;;;;;;;;10.09;100.00;98189.09;5066913;28;19916;-75
2021/01/30 12:17:17;;;;;;;;;;;;;;;10.10;100.00;98179.59;5072887;28;19916;-74
2021/01/30 12:19:43;;;;;;;;;;;;;;;10.12;100.00;98182.84;5086942;28;20001;-74
2021/01/30 12:22:08;;;;;;;;;;;;;;;10.12;100.00;98182.84;5092440;28;20352;-74
2021/01/30 12:24:34;;;;;;;;;;;;;;;10.13;100.00;98178.91;5075669;28;19924;-74
2021/01/30 12:26:59;;;;;;;;;;;;;;;10.13;100.00;98179.69;5095326;28;19962;-75
2021/01/30 12:29:24;;;;;;;;;;;;;;;10.15;100.00;98179.34;5068776;28;19928;-74
2021/01/30 12:31:49;;;;;;;;;;;;;;;10.15;100.00;98171.03;5087142;28;19917;-75
2021/01/30 12:34:15;;;;;;;;;;;;;;;10.16;100.00;98164.31;5089823;28;19922;-74
2021/01/30 12:36:40;;;;;;;;;;;;;;;10.16;100.00;98162.34;5091481;28;19912;-75
2021/01/30 12:39:06;;;;;;;;;;;;;;;10.20;100.00;98168.03;5089925;28;20360;-74
2021/01/30 12:41:31;;;;;;;;;;;;;;;10.22;100.00;98165.69;5093451;28;19939;-76
2021/01/30 12:43:56;;;;;;;;;;;;;;;10.26;100.00;98158.31;5090299;28;19919;-75
2021/01/30 12:46:21;;;;;;;;;;;;;;;10.28;100.00;98151.28;5093551;28;19923;-75
2021/01/30 12:48:47;;;;;;;;;;;;;;;10.35;100.00;98147.91;5101487;28;20396;-74
2021/01/30 12:51:13;;;;;;;;;;;;;;;10.41;100.00;98146.50;5100078;28;19916;-75
2021/01/30 12:53:39;;;;;;;;;;;;;;;10.46;100.00;98142.69;5066158;28;19970;-74
2021/01/30 12:56:04;;;;;;;;;;;;;;;10.49;100.00;98128.91;5080865;28;19952;-75
2021/01/30 12:58:30;;;;;;;;;;;;;;;10.55;100.00;98134.22;5100179;28;20333;-73
2021/01/30 13:00:57;;;;;;;;;;;;;;;10.59;100.00;98135.16;5105913;28;19966;-74
2021/01/30 13:03:23;;;;;;;;;;;;;;;10.64;100.00;98126.56;5078438;28;20026;-73
2021/01/30 13:05:49;;;;;;;;;;;;;;;10.69;100.00;98127.09;5075401;28;19928;-73
2021/01/30 13:08:14;;;;;;;;;;;;;;;10.73;100.00;98132.78;5079680;28;19932;-73
2021/01/30 13:10:40;;;;;;;;;;;;;;;10.75;100.00;98122.13;5098161;28;19919;-73